Time;durP1;ratioP1;P1;durP2;ratioP2;P2;SDS_P1;SDS_P2;PMS_P1;PMS_P2;Temp;Humidity;BMP_temperature;BMP_pressure;BME280_temperature;BME280_humidity;BME280_pressure;Samples;Min_cycle;Max_cycle;Signal;HPM_P1;HPM_P2
2021/04/12 00:07:02;;;;;;;1999.90;999.90;;;;;;;6.95;70.30;101172.13;15805135;28;20397;-61
2021/04/12 00:14:40;;;;;;;1999.90;999.90;;;;;;;7.11;69.91;101171.94;15804626;28;20032;-60
2021/04/12 00:22:17;;;;;;;1999.90;999.90;;;;;;;6.95;70.86;101207.38;15786475;28;20576;-61
2021/04/12 00:29:54;;;;;;;1999.90;999.90;;;;;;;6.79;70.85;101203.97;15832266;22;20182;-80
2021/04/12 00:37:33;;;;;;;1999.90;999.90;;;;;;;6.32;72.98;101202.00;15783553;28;20048;-78
2021/04/12 00:45:29;;;;;;;1999.90;999.90;;;;;;;6.98;71.10;101214.28;15666954;23;20037;-62
2021/04/12 00:53:33;;;;;;;1999.90;999.90;;;;;;;6.87;72.04;101208.84;15683615;22;20369;-60
2021/04/12 01:01:20;;;;;;;1999.90;999.90;;;;;;;6.62;72.62;101211.94;15636056;28;20064;-59
2021/04/12 01:09:15;;;;;;;1999.90;999.90;;;;;;;6.63;73.19;101246.88;15635556;28;20523;-59
2021/04/12 01:17:05;;;;;;;1999.90;999.90;;;;;;;6.38;73.96;101258.22;15654102;28;20045;-56
2021/04/12 01:25:30;;;;;;;1999.90;999.90;;;;;;;6.27;73.68;101254.72;15664070;28;20465;-57
2021/04/12 01:33:27;;;;;;;1999.90;999.90;;;;;;;6.21;73.93;101281.63;15663911;28;20408;-58
2021/04/12 01:41:20;;;;;;;1999.90;999.90;;;;;;;6.30;73.97;101302.06;15664267;28;20045;-59
2021/04/12 01:48:59;;;;;;;1999.90;999.90;;;;;;;6.27;75.87;101313.75;15647323;28;20041;-60
2021/04/12 01:56:56;;;;;;;1999.90;999.90;;;;;;;6.31;75.09;101323.13;15680139;28;20068;-59
2021/04/12 02:04:51;;;;;;;1999.90;999.90;;;;;;;6.37;74.11;101315.63;15661798;28;20045;-55
2021/04/12 02:12:37;;;;;;;1999.90;999.90;;;;;;;6.33;73.60;101322.84;15661684;28;20132;-59
2021/04/12 02:20:15;;;;;;;1999.90;999.90;;;;;;;6.38;74.27;101320.03;15646087;28;20041;-59
2021/04/12 02:27:53;;;;;;;1999.90;999.90;;;;;;;6.47;73.79;101323.84;15678568;28;20056;-59
2021/04/12 02:35:41;;;;;;;1999.90;999.90;;;;;;;6.66;73.49;101323.91;15678106;28;20049;-57
2021/04/12 02:43:29;;;;;;;1999.90;999.90;;;;;;;6.73;72.64;101329.97;15659513;28;20500;-57
2021/04/12 02:51:11;;;;;;;1999.90;999.90;;;;;;;6.70;73.50;101330.56;15642553;28;20045;-58
2021/04/12 02:58:58;;;;;;;1999.90;999.90;;;;;;;6.68;74.52;101332.81;15658745;28;20069;-56
2021/04/12 03:06:51;;;;;;;1999.90;999.90;;;;;;;6.81;73.48;101331.28;15641277;28;20045;-56
2021/04/12 03:14:49;;;;;;;1999.90;999.90;;;;;;;6.78;74.16;101327.16;15657224;28;20459;-59
2021/04/12 03:22:34;;;;;;;1999.90;999.90;;;;;;;6.73;74.40;101329.13;15641105;28;20307;-59
2021/04/12 03:30:19;;;;;;;1999.90;999.90;;;;;;;6.74;73.98;101345.47;15657076;28;20037;-58
2021/04/12 03:38:13;;;;;;;1999.90;999.90;;;;;;;6.93;73.56;101346.41;15640098;28;20505;-57
2021/04/12 03:46:11;;;;;;;1999.90;999.90;;;;;;;6.85;73.56;101360.91;15656014;28;20523;-59
2021/04/12 03:54:00;;;;;;;1999.90;999.90;;;;;;;6.92;73.03;101366.94;15673592;28;20076;-58
2021/04/12 04:02:03;;;;;;;1999.90;999.90;;;;;;;6.98;73.19;101376.03;15673435;28;20055;-59
2021/04/12 04:09:46;;;;;;;1999.90;999.90;;;;;;;6.85;72.96;101393.38;15654661;28;20052;-56
2021/04/12 04:17:52;;;;;;;1999.90;999.90;;;;;;;6.75;73.08;101410.94;15655095;28;20037;-59
2021/04/12 04:25:56;;;;;;;1999.90;999.90;;;;;;;7.09;72.89;101419.25;15654397;28;20040;-56
2021/04/12 04:34:04;;;;;;;1999.90;999.90;;;;;;;6.45;74.14;101427.81;15654007;28;20061;-56
2021/04/12 04:41:50;;;;;;;1999.90;999.90;;;;;;;6.74;73.06;101434.25;15654506;28;20052;-57
2021/04/12 04:49:48;;;;;;;1999.90;999.90;;;;;;;6.83;72.54;101464.97;15654177;28;20331;-58
2021/04/12 04:57:34;;;;;;;1999.90;999.90;;;;;;;6.80;71.92;101471.94;15636624;28;20489;-58
2021/04/12 05:05:24;;;;;;;1999.90;999.90;;;;;;;7.06;70.75;101493.91;15652371;28;20397;-56
2021/04/12 05:13:09;;;;;;;1999.90;999.90;;;;;;;6.88;70.78;101512.13;15670838;28;20045;-59
2021/04/12 05:21:14;;;;;;;1999.90;999.90;;;;;;;7.01;69.57;101524.50;15636934;28;20064;-57
2021/04/12 05:29:10;;;;;;;1999.90;999.90;;;;;;;6.46;71.26;101526.50;15639139;28;20559;-59
2021/04/12 05:36:57;;;;;;;1999.90;999.90;;;;;;;6.60;71.22;101544.19;15643950;28;20053;-59
2021/04/12 05:44:56;;;;;;;1999.90;999.90;;;;;;;7.17;68.86;101559.31;15652977;28;20041;-59
2021/04/12 05:52:58;;;;;;;1999.90;999.90;;;;;;;7.29;68.76;101570.03;15651645;28;20056;-57
2021/04/12 06:00:34;;;;;;;1999.90;999.90;;;;;;;7.10;69.51;101581.88;15669312;28;20064;-59
2021/04/12 06:08:51;;;;;;;1999.90;999.90;;;;;;;7.36;67.83;101612.19;15644148;28;20057;-57
2021/04/12 06:17:08;;;;;;;1999.90;999.90;;;;;;;7.36;68.40;101628.88;15461347;28;20164;-56
2021/04/12 06:25:24;;;;;;;1999.90;999.90;;;;;;;7.52;68.14;101631.25;15563204;28;20524;-58
2021/04/12 06:33:13;;;;;;;1999.90;999.90;;;;;;;7.60;66.52;101651.16;15652925;28;20053;-55
2021/04/12 06:41:17;;;;;;;1999.90;999.90;;;;;;;7.97;65.90;101650.56;15644652;28;20135;-58
2021/04/12 06:49:31;;;;;;;1999.90;999.90;;;;;;;8.12;64.92;101650.41;15677919;28;20083;-56
2021/04/12 06:57:39;;;;;;;1999.90;999.90;;;;;;;8.40;63.55;101637.59;15715049;22;20049;-83
2021/04/12 07:05:41;;;;;;;1999.90;999.90;;;;;;;8.16;63.47;101647.88;15696452;28;20049;-81
2021/04/12 07:13:37;;;;;;;1999.90;999.90;;;;;;;7.85;63.96;101656.50;15670079;28;20053;-82
2021/04/12 07:21:47;;;;;;;1999.90;999.90;;;;;;;8.37;62.28;101677.97;15687184;28;20098;-86
2021/04/12 07:30:12;;;;;;;1999.90;999.90;;;;;;;8.58;60.89;101670.22;15637964;28;20144;-83
2021/04/12 07:38:15;;;;;;;;;;;;;;;8.78;60.16;101701.72;15672326;28;20037;-84
2021/04/12 07:46:27;;;;;;;1999.90;999.90;;;;;;;8.74;59.88;101697.84;15676370;28;19932;-85
2021/04/12 07:54:47;;;;;;;1999.90;999.90;;;;;;;8.95;59.67;101682.53;15674055;28;20049;-85
2021/04/12 08:02:49;;;;;;;1999.90;999.90;;;;;;;9.03;60.34;101718.09;15672978;28;20056;-85
2021/04/12 08:10:52;;;;;;;1999.90;999.90;;;;;;;8.50;58.82;101729.28;15678840;28;20052;-85
2021/04/12 08:19:02;;;;;;;1999.90;999.90;;;;;;;8.78;58.14;101737.91;15670472;28;20064;-86
2021/04/12 08:27:08;;;;;;;1999.90;999.90;;;;;;;8.65;58.92;101762.53;15674259;28;20053;-83
2021/04/12 08:35:29;;;;;;;1999.90;999.90;;;;;;;9.73;56.13;101767.53;15670010;28;20056;-84
2021/04/12 08:43:26;;;;;;;1999.90;999.90;;;;;;;8.92;57.23;101780.59;15670368;28;20075;-84
2021/04/12 08:51:27;;;;;;;1999.90;999.90;;;;;;;9.97;54.23;101773.81;15685262;28;20037;-83
2021/04/12 08:59:39;;;;;;;1999.90;999.90;;;;;;;10.34;53.55;101759.03;15682764;28;20049;-85
2021/04/12 09:07:42;;;;;;;1999.90;999.90;;;;;;;11.46;49.98;101761.50;15673853;28;20065;-85
2021/04/12 09:15:47;;;;;;;1999.90;999.90;;;;;;;11.33;50.32;101793.09;15682188;28;20064;-85
2021/04/12 09:23:44;;;;;;;1999.90;999.90;;;;;;;10.33;53.12;101793.63;15679361;28;20083;-86
2021/04/12 09:32:08;;;;;;;1999.90;999.90;;;;;;;10.54;51.49;101807.22;15683407;28;20037;-85
2021/04/12 09:40:23;;;;;;;1999.90;999.90;;;;;;;11.26;48.32;101785.97;15678835;28;20128;-86
2021/04/12 09:48:44;;;;;;;1999.90;999.90;;;;;;;11.54;48.92;101811.09;15677040;28;20044;-85
2021/04/12 10:14:17;;;;;;;1999.90;999.90;;;;;;;10.33;51.57;101835.47;15676275;28;20069;-87
2021/04/12 10:21:51;;;;;;;;;;;;;;;10.98;51.01;101842.97;15706015;28;20044;-85
2021/04/12 10:29:43;;;;;;;1999.90;999.90;;;;;;;10.69;49.63;101841.25;15727320;28;19928;-84
2021/04/12 10:37:51;;;;;;;1999.90;999.90;;;;;;;10.70;49.43;101870.84;15701979;28;20045;-85
2021/04/12 10:54:27;;;;;;;1999.90;999.90;;;;;;;10.86;48.27;101868.63;15702106;28;20053;-84
2021/04/12 11:02:12;;;;;;;1999.90;999.90;;;;;;;10.66;49.13;101861.44;15665314;28;20158;-85
2021/04/12 11:09:54;;;;;;;;;;;;;;;10.41;50.24;101890.56;15658523;28;20052;-84
2021/04/12 11:25:50;;;;;;;1999.90;999.90;;;;;;;10.53;49.27;101861.41;15687486;28;20041;-89
2021/04/12 11:34:32;;;;;;;1999.90;999.90;;;;;;;10.96;48.14;101876.81;15709393;28;20037;-85
2021/04/12 11:42:32;;;;;;;1999.90;999.90;;;;;;;10.51;46.42;101891.53;15665896;28;20137;-84
2021/04/12 11:50:38;;;;;;;1999.90;999.90;;;;;;;10.69;46.72;101873.94;15683546;28;20066;-85
2021/04/12 11:58:32;;;;;;;;;;;;;;;;;;;;;
2021/04/12 12:15:01;;;;;;;1999.90;999.90;;;;;;;13.23;40.75;101893.44;15735202;28;20029;-87
2021/04/12 12:31:44;;;;;;;1999.90;999.90;;;;;;;12.48;42.35;101921.41;15636732;28;20049;-85
2021/04/12 12:39:30;;;;;;;1999.90;999.90;;;;;;;12.41;42.42;101936.69;15580264;22;20053;-64
2021/04/12 12:47:09;;;;;;;1999.90;999.90;;;;;;;13.23;39.57;101941.09;15567091;28;20088;-63
2021/04/12 12:54:46;;;;;;;1999.90;999.90;;;;;;;12.26;40.96;101934.22;15555077;28;20108;-62
2021/04/12 13:02:31;;;;;;;1999.90;999.90;;;;;;;12.33;41.11;101961.81;15536772;28;20046;-63
2021/04/12 13:10:09;;;;;;;1999.90;999.90;;;;;;;12.09;42.38;101950.88;15536965;28;20441;-63
2021/04/12 13:17:42;;;;;;;1999.90;999.90;;;;;;;12.92;40.47;101943.84;15565999;28;20556;-63
2021/04/12 13:25:22;;;;;;;1999.90;999.90;;;;;;;12.61;40.56;101938.19;15566523;28;20046;-64
2021/04/12 13:33:00;;;;;;;1999.90;999.90;;;;;;;12.43;41.12;101931.59;15548865;28;20076;-63
2021/04/12 13:40:42;;;;;;;1999.90;999.90;;;;;;;12.62;39.24;101931.44;15565264;28;20093;-63
2021/04/12 13:48:21;;;;;;;1999.90;999.90;;;;;;;12.05;40.99;101924.66;15565128;28;20045;-63
2021/04/12 13:56:02;;;;;;;1999.90;999.90;;;;;;;12.54;40.32;101931.34;15547079;28;20483;-64
2021/04/12 14:03:38;;;;;;;1999.90;999.90;;;;;;;12.69;36.90;101950.56;15564949;28;20129;-63
2021/04/12 14:11:20;;;;;;;1999.90;999.90;;;;;;;12.64;35.80;101959.94;15547411;28;20602;-62
2021/04/12 14:19:00;;;;;;;1999.90;999.90;;;;;;;11.99;38.63;101937.94;15546301;28;20045;-64
2021/04/12 14:26:36;;;;;;;1999.90;999.90;;;;;;;12.59;37.86;101962.84;15562075;28;20132;-66
2021/04/12 14:34:12;;;;;;;1999.90;999.90;;;;;;;13.04;38.65;101957.28;15562638;28;20046;-63
2021/04/12 14:41:49;;;;;;;1999.90;999.90;;;;;;;12.80;38.51;101963.19;15544101;28;20046;-63
2021/04/12 14:49:32;;;;;;;1999.90;999.90;;;;;;;12.81;37.98;101962.03;15543988;28;20168;-63
2021/04/12 14:57:08;;;;;;;1999.90;999.90;;;;;;;11.80;39.22;101970.78;15560170;28;20042;-63
2021/04/12 15:04:40;;;;;;;1999.90;999.90;;;;;;;11.49;40.58;101970.53;15542588;28;20050;-63
2021/04/12 15:12:18;;;;;;;1999.90;999.90;;;;;;;11.79;40.23;101971.91;15559968;28;20045;-63
2021/04/12 15:19:58;;;;;;;1999.90;999.90;;;;;;;11.66;41.28;101976.31;15542109;28;20046;-63
2021/04/12 15:27:31;;;;;;;1999.90;999.90;;;;;;;11.76;40.86;101986.47;15541366;28;20050;-62
2021/04/12 15:35:24;;;;;;;1999.90;999.90;;;;;;;11.57;40.77;101983.81;15558283;28;20104;-63
2021/04/12 15:42:59;;;;;;;;;;;;;;;11.82;41.52;101990.88;15559068;28;20045;-64
2021/04/12 15:50:34;;;;;;;1999.90;999.90;;;;;;;11.68;41.09;101996.44;15558477;28;19944;-63
2021/04/12 15:58:12;;;;;;;1999.90;999.90;;;;;;;11.59;41.32;102003.06;15540060;28;20041;-64
2021/04/12 16:05:54;;;;;;;1999.90;999.90;;;;;;;11.77;41.00;101990.94;15556363;28;20077;-64
2021/04/12 16:13:36;;;;;;;1999.90;999.90;;;;;;;11.08;41.48;102009.56;15557026;28;20077;-61
2021/04/12 16:21:14;;;;;;;1999.90;999.90;;;;;;;11.12;41.38;102019.81;15538605;28;20477;-63
2021/04/12 16:28:52;;;;;;;1999.90;999.90;;;;;;;11.14;40.76;102025.09;15555910;28;20364;-65
2021/04/12 16:36:33;;;;;;;1999.90;999.90;;;;;;;11.36;40.41;102039.25;15521503;28;20053;-63
2021/04/12 16:44:09;;;;;;;1999.90;999.90;;;;;;;11.25;40.91;102032.16;15555090;28;20045;-63
2021/04/12 16:51:54;;;;;;;1999.90;999.90;;;;;;;11.53;41.05;102047.88;15537432;28;20037;-63
2021/04/12 16:59:33;;;;;;;1999.90;999.90;;;;;;;11.39;41.59;102047.00;15554354;28;20045;-63
2021/04/12 17:07:12;;;;;;;1999.90;999.90;;;;;;;10.93;42.06;102055.31;15521107;28;20046;-63
2021/04/12 17:14:47;;;;;;;1999.90;999.90;;;;;;;10.62;42.24;102041.81;15520295;28;20053;-63
2021/04/12 17:22:28;;;;;;;1999.90;999.90;;;;;;;10.80;42.90;102050.50;15536580;28;20064;-63
2021/04/12 17:30:06;;;;;;;1999.90;999.90;;;;;;;10.65;43.62;102057.16;15553096;28;20507;-64
2021/04/12 17:37:44;;;;;;;1999.90;999.90;;;;;;;10.79;43.77;102055.25;15554042;28;20457;-62
2021/04/12 17:45:27;;;;;;;1999.90;999.90;;;;;;;10.62;43.84;102058.56;15553686;28;20046;-63
2021/04/12 17:53:08;;;;;;;1999.90;999.90;;;;;;;10.55;45.03;102060.91;15520255;28;20391;-64
2021/04/12 18:00:41;;;;;;;1999.90;999.90;;;;;;;10.48;45.42;102067.97;15541876;28;20080;-64
2021/04/12 18:08:26;;;;;;;1999.90;999.90;;;;;;;10.50;45.70;102096.41;15565028;28;20517;-63
2021/04/12 18:16:08;;;;;;;1999.90;999.90;;;;;;;9.13;49.98;102105.03;15564811;28;20046;-62
2021/04/12 18:23:42;;;;;;;1999.90;999.90;;;;;;;9.34;50.56;102110.44;15548225;28;20452;-63
2021/04/12 18:31:23;;;;;;;1999.90;999.90;;;;;;;8.79;51.65;102124.47;15546565;28;20034;-63
2021/04/12 18:39:06;;;;;;;1999.90;999.90;;;;;;;8.67;52.25;102129.56;15544404;28;20042;-64
2021/04/12 18:47:02;;;;;;;1999.90;999.90;;;;;;;8.71;52.03;102141.75;15562275;28;20045;-65
2021/04/12 18:54:39;;;;;;;1999.90;999.90;;;;;;;8.80;52.33;102150.34;15546640;28;20100;-64
2021/04/12 19:02:15;;;;;;;1999.90;999.90;;;;;;;8.60;53.90;102160.47;15543445;28;20045;-63
2021/04/12 19:09:55;;;;;;;1999.90;999.90;;;;;;;8.29;54.16;102173.63;15561425;28;20069;-61
2021/04/12 19:17:31;;;;;;;1999.90;999.90;;;;;;;8.26;54.52;102178.91;15543494;28;20462;-62
2021/04/12 19:25:19;;;;;;;1999.90;999.90;;;;;;;8.22;54.52;102173.06;15543913;28;20041;-64
2021/04/12 19:33:00;;;;;;;1999.90;999.90;;;;;;;7.97;55.58;102192.59;15561430;28;20048;-62
2021/04/12 19:40:44;;;;;;;1999.90;999.90;;;;;;;7.82;56.85;102183.16;15560082;28;20137;-63
2021/04/12 19:48:41;;;;;;;1999.90;999.90;;;;;;;7.79;56.60;102185.66;15559075;28;20485;-65
2021/04/12 19:56:20;;;;;;;1999.90;999.90;;;;;;;7.51;57.28;102182.34;15541741;28;20049;-63
2021/04/12 20:03:58;;;;;;;1999.90;999.90;;;;;;;7.29;57.82;102175.34;15542583;28;20510;-64
2021/04/12 20:11:38;;;;;;;1999.90;999.90;;;;;;;6.90;59.16;102187.78;15542505;28;20042;-62
2021/04/12 20:19:16;;;;;;;1999.90;999.90;;;;;;;6.83;58.77;102194.66;15542874;28;20049;-63
2021/04/12 20:27:03;;;;;;;1999.90;999.90;;;;;;;6.79;58.81;102188.84;15523117;28;20050;-62
2021/04/12 20:34:43;;;;;;;1999.90;999.90;;;;;;;6.57;59.52;102193.75;15539614;28;20518;-62
2021/04/12 20:42:35;;;;;;;1999.90;999.90;;;;;;;6.18;61.38;102196.03;15556113;28;20038;-61
2021/04/12 20:50:15;;;;;;;1999.90;999.90;;;;;;;6.22;61.29;102192.44;15555852;28;20088;-62
2021/04/12 20:58:02;;;;;;;1999.90;999.90;;;;;;;6.13;61.12;102199.59;15537006;28;20042;-61
2021/04/12 21:05:37;;;;;;;1999.90;999.90;;;;;;;6.06;60.99;102207.31;15554722;28;20053;-63
2021/04/12 21:13:22;;;;;;;1999.90;999.90;;;;;;;5.92;60.74;102195.84;15520586;28;20142;-62
2021/04/12 21:21:05;;;;;;;1999.90;999.90;;;;;;;5.84;61.64;102207.41;15537059;28;20336;-62
2021/04/12 21:28:47;;;;;;;1999.90;999.90;;;;;;;5.80;62.04;102207.06;15553846;28;20659;-61
2021/04/12 21:36:29;;;;;;;1999.90;999.90;;;;;;;5.63;62.79;102222.19;15562113;28;20046;-63
2021/04/12 21:44:07;;;;;;;1999.90;999.90;;;;;;;5.53;62.64;102219.31;15564769;28;20064;-61
2021/04/12 21:51:53;;;;;;;1999.90;999.90;;;;;;;5.28;63.21;102229.03;15565386;28;20045;-61
2021/04/12 21:59:43;;;;;;;1999.90;999.90;;;;;;;5.26;62.70;102220.16;15546874;28;20038;-62
2021/04/12 22:07:25;;;;;;;1999.90;999.90;;;;;;;5.13;63.47;102224.16;15546513;28;20525;-62
2021/04/12 22:15:12;;;;;;;1999.90;999.90;;;;;;;5.12;63.40;102225.28;15546240;28;20441;-61
2021/04/12 22:22:49;;;;;;;1999.90;999.90;;;;;;;4.96;63.59;102228.09;15563803;28;20104;-63
2021/04/12 22:30:39;;;;;;;1999.90;999.90;;;;;;;5.03;63.43;102235.13;15563325;28;20049;-63
2021/04/12 22:46:13;;;;;;;1999.90;999.90;;;;;;;4.84;64.49;102244.84;15545010;28;20494;-62
2021/04/12 22:54:12;;;;;;;1999.90;999.90;;;;;;;4.97;63.72;102238.91;15545435;28;20049;-58
2021/04/12 23:02:01;;;;;;;1999.90;999.90;;;;;;;4.93;63.30;102246.06;15548212;28;20048;-62
2021/04/12 23:09:57;;;;;;;1999.90;999.90;;;;;;;4.89;64.42;102247.66;15545818;28;20046;-61
2021/04/12 23:17:30;;;;;;;1999.90;999.90;;;;;;;4.90;64.70;102249.38;15562115;28;20053;-64
2021/04/12 23:25:08;;;;;;;1999.90;999.90;;;;;;;4.81;64.27;102259.19;15541881;28;20045;-61
2021/04/12 23:32:42;;;;;;;1999.90;999.90;;;;;;;4.88;64.32;102257.06;15524616;28;20180;-62
2021/04/12 23:40:17;;;;;;;1999.90;999.90;;;;;;;4.77;64.73;102258.03;15541899;28;20046;-64
2021/04/12 23:47:55;;;;;;;1999.90;999.90;;;;;;;4.87;64.78;102260.91;15524757;28;20053;-64
2021/04/12 23:55:45;;;;;;;1999.90;999.90;;;;;;;4.83;64.37;102270.84;15523331;28;20189;-64
